Time;durP1;ratioP1;P1;durP2;ratioP2;P2;SDS_P1;SDS_P2;PMS_P1;PMS_P2;Temp;Humidity;BMP_temperature;BMP_pressure;BME280_temperature;BME280_humidity;BME280_pressure;Samples;Min_cycle;Max_cycle;Signal;HPM_P1;HPM_P2
2022/02/11 00:02:16;;;;;;;;;;;1.90;84.60;;;;;;6184405;23;19946;-76
2022/02/11 00:11:40;;;;;;;;;;;1.50;84.50;;;;;;6186814;23;19918;-76
2022/02/11 00:14:08;;;;;;;;;;;1.40;84.40;;;;;;6164109;23;19916;-74
2022/02/11 00:16:35;;;;;;;;;;;1.30;84.40;;;;;;6192988;23;21299;-76
2022/02/11 00:19:05;;;;;;;;;;;1.30;84.90;;;;;;6186895;23;20325;-77
2022/02/11 00:21:31;;;;;;;;;;;1.30;85.30;;;;;;6160717;23;19916;-77
2022/02/11 00:23:59;;;;;;;;;;;1.20;85.00;;;;;;6188095;23;20301;-76
2022/02/11 00:26:31;;;;;;;;;;;1.20;84.60;;;;;;6189272;23;19917;-75
2022/02/11 00:34:13;;;;;;;;;;;1.30;84.20;;;;;;6188136;23;19916;-76
2022/02/11 01:02:11;;;;;;;;;;;1.20;86.00;;;;;;6188256;23;19920;-77
2022/02/11 01:04:17;;;;;;;;;;;1.20;86.30;;;;;;6190045;23;19939;-74
2022/02/11 01:06:44;;;;;;;;;;;1.20;86.40;;;;;;6186216;23;19939;-74
2022/02/11 01:09:13;;;;;;;;;;;1.20;86.00;;;;;;6190371;23;19923;-77
2022/02/11 01:11:49;;;;;;;;;;;1.10;85.80;;;;;;6191005;23;19971;-77
2022/02/11 01:14:16;;;;;;;;;;;1.10;85.50;;;;;;6165818;23;19971;-75
2022/02/11 01:17:50;;;;;;;;;;;1.10;85.20;;;;;;6188209;23;19919;-76
2022/02/11 01:20:04;;;;;;;;;;;1.10;85.00;;;;;;6164874;23;20260;-76
2022/02/11 01:22:47;;;;;;;;;;;1.00;84.70;;;;;;6187240;23;19916;-76
2022/02/11 01:33:27;;;;;;;;;;;1.00;86.30;;;;;;6123918;23;19920;-76
2022/02/11 01:46:32;;;;;;;;;;;0.90;86.00;;;;;;6189166;23;19991;-77
2022/02/11 01:57:14;;;;;;;;;;;0.80;86.80;;;;;;6188573;23;20357;-75
2022/02/11 02:43:28;;;;;;;;;;;0.30;86.60;;;;;;6188207;23;19967;-76
2022/02/11 02:58:15;;;;;;;;;;;0.20;87.00;;;;;;6183986;23;19983;-77
2022/02/11 03:53:12;;;;;;;;;;;1.90;90.20;;;;;;6186866;23;19924;-77
2022/02/11 05:00:11;;;;;;;;;;;0.10;87.20;;;;;;6186955;23;19923;-77
2022/02/11 05:02:38;;;;;;;;;;;0.10;88.30;;;;;;6164242;23;19942;-74
2022/02/11 05:05:08;;;;;;;;;;;0.10;89.20;;;;;;6156822;23;19995;-76
2022/02/11 05:07:35;;;;;;;;;;;0.20;88.50;;;;;;6164492;23;20305;-75
2022/02/11 05:10:03;;;;;;;;;;;0.10;89.20;;;;;;6183208;23;20333;-78
2022/02/11 05:12:30;;;;;;;;;;;0.10;88.50;;;;;;6185250;23;19924;-76
2022/02/11 05:14:57;;;;;;;;;;;0.10;88.20;;;;;;6184330;23;19935;-76
2022/02/11 05:17:23;;;;;;;;;;;0.10;88.60;;;;;;6163492;23;19916;-75
2022/02/11 05:19:50;;;;;;;;;;;0.10;88.70;;;;;;6192440;23;19951;-76
2022/02/11 05:22:17;;;;;;;;;;;0.10;88.40;;;;;;6185702;23;20357;-76
2022/02/11 05:24:44;;;;;;;;;;;0.10;88.70;;;;;;6191907;23;19923;-77
2022/02/11 05:27:10;;;;;;;;;;;0.10;88.80;;;;;;6185612;23;20007;-76
2022/02/11 05:29:37;;;;;;;;;;;0.00;89.60;;;;;;6188638;23;19966;-77
2022/02/11 05:32:04;;;;;;;;;;;0.10;90.30;;;;;;6159861;23;19970;-77
2022/02/11 05:34:31;;;;;;;;;;;0.10;90.20;;;;;;6185872;23;19924;-76
2022/02/11 05:36:58;;;;;;;;;;;0.10;91.10;;;;;;6161904;23;19916;-77
2022/02/11 05:39:24;;;;;;;;;;;0.10;91.10;;;;;;6196320;23;19916;-77
2022/02/11 05:41:51;;;;;;;;;;;0.20;91.20;;;;;;6184766;23;19920;-76
2022/02/11 05:44:18;;;;;;;;;;;0.20;91.10;;;;;;6185739;23;19916;-76
2022/02/11 05:46:45;;;;;;;;;;;0.20;91.10;;;;;;6184892;23;19920;-77
2022/02/11 05:49:13;;;;;;;;;;;0.20;90.50;;;;;;6183940;23;19947;-76
2022/02/11 05:51:39;;;;;;;;;;;0.20;91.10;;;;;;6190062;23;19916;-74
2022/02/11 05:54:06;;;;;;;;;;;0.30;91.70;;;;;;6185143;23;19916;-76
2022/02/11 05:56:33;;;;;;;;;;;0.30;91.70;;;;;;6166185;23;20356;-77
2022/02/11 05:58:59;;;;;;;;;;;0.30;91.40;;;;;;6158327;23;19920;-75
2022/02/11 06:01:26;;;;;;;;;;;0.30;91.00;;;;;;6186392;23;19924;-75
2022/02/11 06:03:53;;;;;;;;;;;0.30;90.90;;;;;;6183203;23;20249;-75
2022/02/11 06:06:20;;;;;;;;;;;0.30;91.10;;;;;;6189917;23;19920;-75
2022/02/11 06:08:47;;;;;;;;;;;0.30;91.00;;;;;;6186110;23;19966;-76
2022/02/11 06:11:13;;;;;;;;;;;0.30;90.60;;;;;;6183821;23;19916;-76
2022/02/11 06:13:40;;;;;;;;;;;0.20;90.30;;;;;;6161813;23;19931;-76
2022/02/11 06:16:07;;;;;;;;;;;0.20;90.30;;;;;;6159985;23;20333;-75
2022/02/11 06:18:34;;;;;;;;;;;0.20;90.50;;;;;;6188856;23;19923;-75
2022/02/11 06:21:00;;;;;;;;;;;0.10;90.70;;;;;;6190581;23;19924;-75
2022/02/11 06:23:30;;;;;;;;;;;0.10;90.80;;;;;;6190255;23;19963;-76
2022/02/11 06:25:57;;;;;;;;;;;0.10;90.70;;;;;;6184172;23;19951;-76
2022/02/11 06:28:24;;;;;;;;;;;0.10;90.80;;;;;;6189381;23;19916;-75
2022/02/11 06:30:51;;;;;;;;;;;0.10;90.80;;;;;;6191564;23;19920;-75
2022/02/11 06:33:18;;;;;;;;;;;0.10;90.60;;;;;;6183448;23;20418;-76
2022/02/11 06:35:45;;;;;;;;;;;0.10;90.50;;;;;;6187444;23;19919;-75
2022/02/11 06:38:12;;;;;;;;;;;0.10;90.60;;;;;;6185570;23;19920;-75
2022/02/11 06:40:39;;;;;;;;;;;0.10;90.80;;;;;;6190468;23;19916;-76
2022/02/11 06:43:06;;;;;;;;;;;0.20;90.60;;;;;;6188583;23;19916;-75
2022/02/11 06:45:33;;;;;;;;;;;0.10;90.50;;;;;;6189690;23;19923;-76
2022/02/11 06:48:00;;;;;;;;;;;0.10;90.70;;;;;;6183618;23;19989;-76
2022/02/11 06:50:27;;;;;;;;;;;0.10;90.80;;;;;;6162118;23;19916;-75
2022/02/11 06:52:56;;;;;;;;;;;0.20;90.40;;;;;;6183808;23;19923;-76
2022/02/11 06:55:24;;;;;;;;;;;0.20;90.50;;;;;;6188285;23;19986;-75
2022/02/11 06:57:51;;;;;;;;;;;0.20;90.50;;;;;;6194052;23;19924;-75
2022/02/11 07:00:18;;;;;;;;;;;0.20;90.70;;;;;;6183260;23;19920;-76
2022/02/11 07:02:45;;;;;;;;;;;0.20;90.60;;;;;;6191370;23;20338;-76
2022/02/11 07:05:12;;;;;;;;;;;0.20;90.40;;;;;;6185810;23;20416;-76
2022/02/11 07:07:38;;;;;;;;;;;0.20;90.70;;;;;;6187455;23;20337;-75
2022/02/11 07:10:05;;;;;;;;;;;0.30;90.80;;;;;;6190560;23;19920;-75
2022/02/11 07:12:32;;;;;;;;;;;0.30;90.80;;;;;;6186903;23;19916;-76
2022/02/11 07:14:59;;;;;;;;;;;0.20;90.80;;;;;;6185693;23;20479;-76
2022/02/11 07:17:25;;;;;;;;;;;0.30;91.00;;;;;;6191599;23;19920;-75
2022/02/11 07:19:52;;;;;;;;;;;0.30;90.90;;;;;;6188263;23;19923;-76
2022/02/11 07:22:19;;;;;;;;;;;0.30;90.70;;;;;;6187371;23;19982;-76
2022/02/11 07:24:48;;;;;;;;;;;0.30;90.80;;;;;;6191497;23;19916;-76
2022/02/11 07:27:15;;;;;;;;;;;0.30;90.80;;;;;;6186689;23;19920;-76
2022/02/11 07:29:42;;;;;;;;;;;0.40;90.90;;;;;;6184113;23;20292;-75
2022/02/11 07:32:10;;;;;;;;;;;0.50;90.70;;;;;;6188071;23;19920;-76
2022/02/11 07:34:37;;;;;;;;;;;0.50;90.60;;;;;;6195550;23;19970;-76
2022/02/11 07:37:04;;;;;;;;;;;0.60;90.70;;;;;;6188772;23;19927;-76
2022/02/11 07:39:47;;;;;;;;;;;0.60;91.10;;;;;;6181857;23;20400;-76
2022/02/11 07:42:14;;;;;;;;;;;0.70;91.40;;;;;;6182195;23;19946;-76
2022/02/11 07:44:41;;;;;;;;;;;0.90;91.30;;;;;;6189409;23;19920;-76
2022/02/11 07:47:08;;;;;;;;;;;0.90;91.20;;;;;;6160086;23;19916;-76
2022/02/11 07:49:35;;;;;;;;;;;1.00;91.30;;;;;;6185004;23;19996;-75
2022/02/11 07:52:02;;;;;;;;;;;1.20;91.30;;;;;;6184084;23;19924;-76
2022/02/11 07:54:30;;;;;;;;;;;1.30;91.40;;;;;;6186697;23;19966;-76
2022/02/11 07:56:57;;;;;;;;;;;1.60;91.70;;;;;;6194635;23;20353;-77
2022/02/11 07:59:24;;;;;;;;;;;1.90;91.90;;;;;;6187577;23;19916;-76
2022/02/11 08:01:52;;;;;;;;;;;2.20;91.70;;;;;;6186586;23;19917;-76
2022/02/11 08:04:19;;;;;;;;;;;2.40;91.50;;;;;;6183935;23;19920;-76
2022/02/11 08:06:47;;;;;;;;;;;2.70;91.20;;;;;;6190411;23;19919;-76
2022/02/11 08:09:14;;;;;;;;;;;2.90;90.90;;;;;;6184798;23;19916;-76
2022/02/11 08:11:40;;;;;;;;;;;3.20;90.60;;;;;;6183993;23;19924;-76
2022/02/11 08:14:07;;;;;;;;;;;3.50;90.10;;;;;;6186553;23;19916;-75
2022/02/11 08:16:35;;;;;;;;;;;3.70;89.10;;;;;;6187531;23;20292;-76
2022/02/11 08:19:02;;;;;;;;;;;3.90;87.80;;;;;;6190151;23;19966;-77
2022/02/11 08:21:28;;;;;;;;;;;4.10;86.60;;;;;;6189069;23;19922;-76
2022/02/11 08:23:56;;;;;;;;;;;4.30;85.40;;;;;;6186495;23;20355;-75
2022/02/11 08:26:23;;;;;;;;;;;4.50;84.60;;;;;;6158332;23;19974;-77
2022/02/11 08:28:49;;;;;;;;;;;4.60;83.40;;;;;;6190334;23;19940;-77
2022/02/11 08:31:16;;;;;;;;;;;4.80;82.50;;;;;;6184999;23;19920;-77
2022/02/11 08:33:46;;;;;;;;;;;4.90;82.00;;;;;;6183808;23;19916;-77
2022/02/11 08:36:13;;;;;;;;;;;5.00;81.20;;;;;;6156640;23;20352;-76
2022/02/11 08:38:40;;;;;;;;;;;5.10;80.80;;;;;;6190508;23;19920;-76
2022/02/11 08:41:07;;;;;;;;;;;5.20;79.80;;;;;;6189299;23;19971;-76
2022/02/11 08:43:34;;;;;;;;;;;5.30;79.20;;;;;;6182570;23;19916;-77
2022/02/11 08:46:01;;;;;;;;;;;5.40;78.70;;;;;;6190305;23;19959;-76
2022/02/11 08:48:28;;;;;;;;;;;5.50;77.80;;;;;;6162743;23;19916;-75
2022/02/11 08:50:55;;;;;;;;;;;5.60;77.10;;;;;;6189392;23;19943;-77
2022/02/11 08:53:31;;;;;;;;;;;5.70;76.50;;;;;;6183231;23;19920;-75
2022/02/11 08:56:03;;;;;;;;;;;5.80;76.20;;;;;;6189647;23;20011;-75
2022/02/11 08:58:30;;;;;;;;;;;6.00;75.00;;;;;;6187083;23;20483;-77
2022/02/11 09:00:56;;;;;;;;;;;6.10;75.10;;;;;;6187388;23;19920;-76
2022/02/11 09:03:25;;;;;;;;;;;6.20;74.40;;;;;;6164430;23;19943;-77
2022/02/11 09:05:52;;;;;;;;;;;6.20;74.10;;;;;;6195275;23;19943;-75
2022/02/11 09:08:19;;;;;;;;;;;6.30;73.70;;;;;;6184668;23;19920;-77
2022/02/11 09:10:48;;;;;;;;;;;6.40;73.60;;;;;;6190400;23;19923;-75
2022/02/11 09:13:15;;;;;;;;;;;6.50;72.40;;;;;;6187289;23;19917;-76
2022/02/11 09:15:42;;;;;;;;;;;6.60;72.00;;;;;;6189720;23;20281;-78
2022/02/11 09:18:09;;;;;;;;;;;6.60;71.80;;;;;;6165175;23;19952;-77
2022/02/11 09:20:36;;;;;;;;;;;6.80;72.10;;;;;;6183920;23;19922;-75
2022/02/11 09:23:04;;;;;;;;;;;7.00;71.60;;;;;;6187399;23;20330;-77
2022/02/11 09:25:32;;;;;;;;;;;7.30;72.80;;;;;;6160717;23;19922;-77
2022/02/11 09:27:59;;;;;;;;;;;7.40;74.40;;;;;;6184532;23;19987;-75
2022/02/11 09:30:26;;;;;;;;;;;7.50;74.40;;;;;;6189375;23;19927;-77
2022/02/11 09:32:55;;;;;;;;;;;7.70;73.60;;;;;;6182216;23;20329;-76
2022/02/11 09:35:22;;;;;;;;;;;7.90;73.50;;;;;;6167067;23;19917;-78
2022/02/11 09:37:49;;;;;;;;;;;8.10;73.10;;;;;;6191379;23;19916;-78
2022/02/11 09:40:19;;;;;;;;;;;8.20;71.30;;;;;;6192116;23;19916;-75
2022/02/11 09:42:46;;;;;;;;;;;8.30;70.40;;;;;;6185008;23;19956;-75
2022/02/11 09:45:15;;;;;;;;;;;8.30;71.10;;;;;;6190337;23;19916;-76
2022/02/11 09:47:42;;;;;;;;;;;8.30;71.30;;;;;;6166834;23;19932;-75
2022/02/11 09:50:09;;;;;;;;;;;8.30;71.40;;;;;;6167642;23;20376;-76
2022/02/11 09:52:37;;;;;;;;;;;8.40;71.30;;;;;;6166844;23;20002;-76
2022/02/11 09:57:50;;;;;;;;;;;8.60;69.90;;;;;;6195161;23;19943;-78
2022/02/11 10:00:17;;;;;;;;;;;8.70;69.30;;;;;;6165191;23;19971;-76
2022/02/11 10:02:51;;;;;;;;;;;8.70;68.80;;;;;;6158919;23;19917;-76
2022/02/11 10:05:24;;;;;;;;;;;8.70;69.10;;;;;;6157448;23;19932;-76
2022/02/11 10:07:51;;;;;;;;;;;8.60;69.10;;;;;;6165938;23;19924;-76
2022/02/11 10:10:38;;;;;;;;;;;8.50;70.00;;;;;;6163132;23;19967;-78
2022/02/11 10:13:12;;;;;;;;;;;8.20;69.90;;;;;;6162748;23;19995;-76
2022/02/11 10:15:43;;;;;;;;;;;8.00;70.90;;;;;;6170610;23;19921;-76
2022/02/11 10:18:19;;;;;;;;;;;8.10;71.80;;;;;;6181239;23;19918;-77
2022/02/11 10:20:49;;;;;;;;;;;8.20;70.80;;;;;;6163887;23;19919;-75
2022/02/11 10:23:23;;;;;;;;;;;8.40;70.80;;;;;;6161725;23;20468;-76
2022/02/11 10:25:56;;;;;;;;;;;8.60;70.00;;;;;;6160247;23;19952;-78
2022/02/11 10:28:27;;;;;;;;;;;8.90;69.20;;;;;;6171671;23;19924;-76
2022/02/11 10:31:13;;;;;;;;;;;9.10;68.30;;;;;;6171766;23;19922;-76
2022/02/11 10:34:05;;;;;;;;;;;9.30;68.40;;;;;;6193050;23;19917;-76
2022/02/11 10:36:32;;;;;;;;;;;9.50;67.60;;;;;;6195378;23;20309;-77
2022/02/11 10:39:21;;;;;;;;;;;9.60;67.10;;;;;;6166193;23;19921;-77
2022/02/11 10:41:54;;;;;;;;;;;9.90;67.20;;;;;;6164390;23;20393;-76
2022/02/11 10:44:23;;;;;;;;;;;10.10;65.70;;;;;;6164640;23;19920;-76
2022/02/11 10:46:55;;;;;;;;;;;10.10;65.10;;;;;;6171378;23;20257;-75
2022/02/11 10:49:36;;;;;;;;;;;10.30;65.70;;;;;;6167911;23;19920;-77
2022/02/11 10:52:14;;;;;;;;;;;10.60;64.80;;;;;;6162805;23;20294;-76
2022/02/11 10:54:44;;;;;;;;;;;10.70;64.40;;;;;;6168135;23;19921;-76
2022/02/11 10:57:13;;;;;;;;;;;10.70;63.60;;;;;;6168269;23;19940;-76
2022/02/11 10:59:41;;;;;;;;;;;10.70;63.80;;;;;;6167788;23;19940;-78
2022/02/11 11:02:09;;;;;;;;;;;10.70;64.30;;;;;;6164181;23;19916;-76
2022/02/11 11:04:36;;;;;;;;;;;10.80;64.50;;;;;;6160362;23;19916;-76
2022/02/11 11:07:06;;;;;;;;;;;11.00;64.10;;;;;;6164617;23;19940;-77
2022/02/11 11:09:34;;;;;;;;;;;11.10;63.50;;;;;;6160697;23;19916;-76
2022/02/11 11:12:02;;;;;;;;;;;11.30;63.60;;;;;;6170340;23;20127;-76
2022/02/11 11:14:29;;;;;;;;;;;11.50;62.00;;;;;;6167598;23;19940;-77
2022/02/11 11:16:58;;;;;;;;;;;11.60;62.30;;;;;;6164084;23;19920;-76
2022/02/11 11:19:26;;;;;;;;;;;11.70;61.50;;;;;;6162756;23;19951;-78
2022/02/11 11:22:13;;;;;;;;;;;11.90;61.20;;;;;;6157901;23;19917;-77
2022/02/11 11:24:46;;;;;;;;;;;12.10;60.60;;;;;;6159743;23;19924;-76
2022/02/11 11:27:13;;;;;;;;;;;12.20;60.50;;;;;;6161037;23;19920;-78
2022/02/11 11:29:40;;;;;;;;;;;12.40;60.00;;;;;;6166579;23;19917;-76
2022/02/11 11:32:12;;;;;;;;;;;12.50;59.70;;;;;;6167347;23;19951;-76
2022/02/11 11:34:39;;;;;;;;;;;12.70;59.00;;;;;;6161823;23;19936;-78
2022/02/11 11:37:08;;;;;;;;;;;12.90;57.50;;;;;;6169202;23;19916;-77
2022/02/11 11:39:36;;;;;;;;;;;13.10;56.50;;;;;;6165743;23;19920;-76
2022/02/11 11:42:03;;;;;;;;;;;13.20;55.50;;;;;;6166745;23;19947;-78
2022/02/11 11:44:41;;;;;;;;;;;13.30;55.10;;;;;;6160968;23;19916;-78
2022/02/11 11:47:11;;;;;;;;;;;13.30;54.60;;;;;;6139876;23;19916;-76
2022/02/11 11:49:41;;;;;;;;;;;13.40;53.80;;;;;;6167167;23;19940;-76
2022/02/11 11:52:11;;;;;;;;;;;13.40;53.90;;;;;;6161115;23;20249;-76
2022/02/11 11:54:39;;;;;;;;;;;13.50;53.60;;;;;;6155331;23;20297;-75
2022/02/11 11:57:09;;;;;;;;;;;13.60;53.40;;;;;;6168140;23;19924;-76
2022/02/11 11:59:36;;;;;;;;;;;13.80;53.60;;;;;;6158814;23;19940;-76
2022/02/11 12:02:03;;;;;;;;;;;13.90;52.80;;;;;;6164164;23;19921;-76
2022/02/11 12:04:33;;;;;;;;;;;14.00;52.60;;;;;;6168217;23;19916;-76
2022/02/11 12:07:01;;;;;;;;;;;14.00;51.80;;;;;;6165556;23;19916;-75
2022/02/11 12:09:28;;;;;;;;;;;14.00;52.80;;;;;;6160227;23;20400;-75
2022/02/11 12:12:00;;;;;;;;;;;14.10;52.40;;;;;;6158058;23;19940;-77
2022/02/11 12:14:30;;;;;;;;;;;14.20;52.70;;;;;;6151763;23;19926;-76
2022/02/11 12:16:58;;;;;;;;;;;14.10;51.20;;;;;;6155457;23;19939;-76
2022/02/11 12:19:25;;;;;;;;;;;14.10;51.10;;;;;;6164879;23;20309;-78
2022/02/11 12:21:55;;;;;;;;;;;14.10;52.60;;;;;;6160508;23;19924;-78
2022/02/11 12:27:21;;;;;;;;;;;14.50;52.60;;;;;;6154729;23;19992;-78
2022/02/11 12:29:51;;;;;;;;;;;14.50;51.50;;;;;;6160666;23;19924;-76
2022/02/11 12:32:24;;;;;;;;;;;14.40;51.60;;;;;;6161068;23;19920;-76
2022/02/11 12:34:52;;;;;;;;;;;14.60;51.50;;;;;;6155868;23;20440;-77
2022/02/11 12:37:19;;;;;;;;;;;14.50;50.10;;;;;;6161431;23;20293;-79
2022/02/11 12:39:48;;;;;;;23.45;12.50;;;14.60;50.60;;;;;;6154298;23;19963;-77
2022/02/11 12:42:23;;;;;;;19.20;11.68;;;14.70;50.50;;;;;;6156556;23;20109;-76
2022/02/11 12:44:51;;;;;;;19.40;10.80;;;14.70;50.20;;;;;;6161133;23;20029;-76
2022/02/11 12:47:18;;;;;;;18.23;9.90;;;14.70;50.00;;;;;;6159924;23;20029;-76
2022/02/11 12:49:47;;;;;;;18.50;11.10;;;14.60;50.10;;;;;;6153802;23;20022;-76
2022/02/11 12:52:17;;;;;;;;;;;14.70;50.80;;;;;;6164254;23;20048;-76
2022/02/11 12:54:57;;;;;;;;;;;14.80;50.20;;;;;;6160992;23;19963;-76
2022/02/11 12:57:24;;;;;;;;;;;15.00;49.50;;;;;;6153873;23;19924;-78
2022/02/11 12:59:53;;;;;;;;;;;15.10;49.50;;;;;;6155500;23;19916;-79
2022/02/11 13:02:27;;;;;;;21.52;9.60;;;15.30;49.10;;;;;;6136132;23;19924;-76
2022/02/11 13:05:00;;;;;;;;;;;15.30;48.80;;;;;;6188494;23;20025;-76
2022/02/11 13:07:27;;;;;;;;;;;15.50;49.30;;;;;;6163642;23;20253;-77
2022/02/11 13:09:54;;;;;;;;;;;15.70;48.10;;;;;;6180885;23;19920;-76
2022/02/11 13:12:21;;;;;;;;;;;15.70;47.90;;;;;;6158116;23;19948;-76
2022/02/11 13:14:48;;;;;;;;;;;15.80;47.80;;;;;;6157486;23;19958;-77
2022/02/11 13:17:15;;;;;;;;;;;15.80;48.00;;;;;;6159618;23;19920;-76
2022/02/11 13:19:41;;;;;;;;;;;15.90;47.50;;;;;;6189090;23;20277;-78
2022/02/11 13:22:08;;;;;;;;;;;16.00;48.00;;;;;;6183731;23;19951;-78
2022/02/11 13:24:36;;;;;;;;;;;16.20;48.40;;;;;;6185966;23;19927;-76
2022/02/11 13:27:03;;;;;;;;;;;16.20;46.50;;;;;;6163046;23;19970;-75
2022/02/11 13:29:29;;;;;;;;;;;16.10;47.00;;;;;;6188712;23;20404;-78
2022/02/11 13:31:58;;;;;;;;;;;16.10;46.50;;;;;;6171904;23;19908;-76
2022/02/11 13:34:26;;;;;;;;;;;16.10;47.20;;;;;;6175683;23;20359;-78
2022/02/11 13:37:02;;;;;;;;;;;16.10;46.50;;;;;;6163392;23;20008;-76
2022/02/11 13:39:32;;;;;;;;;;;16.00;47.00;;;;;;6192744;23;20366;-77
2022/02/11 13:42:10;;;;;;;;;;;16.00;46.40;;;;;;6197210;23;19920;-77
2022/02/11 13:44:37;;;;;;;;;;;16.10;47.60;;;;;;6185543;23;19916;-77
2022/02/11 13:47:13;;;;;;;;;;;16.10;46.60;;;;;;6174494;23;19923;-78
2022/02/11 13:49:40;;;;;;;;;;;16.10;47.10;;;;;;6155686;23;19943;-77
2022/02/11 13:54:56;;;;;;;;;;;16.10;46.40;;;;;;6191779;23;19924;-77
2022/02/11 13:57:24;;;;;;;;;;;15.90;46.00;;;;;;6159606;23;19978;-77
2022/02/11 13:59:50;;;;;;;;;;;15.80;46.60;;;;;;6163246;23;19923;-76
2022/02/11 14:02:20;;;;;;;;;;;15.90;47.10;;;;;;6164594;23;19900;-77
2022/02/11 14:05:06;;;;;;;;;;;15.80;46.70;;;;;;6150094;23;19935;-76
2022/02/11 14:07:33;;;;;;;;;;;15.70;47.20;;;;;;6164315;23;20048;-77
2022/02/11 14:10:14;;;;;;;;;;;15.50;46.40;;;;;;6168134;23;19919;-77
2022/02/11 14:12:41;;;;;;;;;;;15.70;48.10;;;;;;6193401;23;20234;-77
2022/02/11 14:15:08;;;;;;;;;;;15.80;47.20;;;;;;6157316;23;19970;-75
2022/02/11 14:17:34;;;;;;;;;;;15.90;46.90;;;;;;6157596;23;19917;-78
2022/02/11 14:20:03;;;;;;;;;;;16.00;46.70;;;;;;6183654;23;19916;-75
2022/02/11 14:22:30;;;;;;;;;;;16.00;47.00;;;;;;6167626;23;19927;-77
2022/02/11 14:24:58;;;;;;;;;;;16.10;47.10;;;;;;6187733;23;19987;-77
2022/02/11 14:27:25;;;;;;;;;;;15.90;46.80;;;;;;6186805;23;19954;-78
2022/02/11 14:29:51;;;;;;;;;;;15.70;47.40;;;;;;6163413;23;19920;-78
2022/02/11 14:32:23;;;;;;;;;;;15.60;48.10;;;;;;6203575;23;19912;-78
2022/02/11 14:34:50;;;;;;;;;;;15.50;47.90;;;;;;6205977;23;19900;-75
2022/02/11 14:37:17;;;;;;;;;;;15.40;48.30;;;;;;6196873;23;19923;-77
2022/02/11 14:39:44;;;;;;;;;;;15.30;48.70;;;;;;6165292;23;19916;-76
2022/02/11 14:42:11;;;;;;;;;;;15.30;49.00;;;;;;6199636;23;19920;-77
2022/02/11 14:44:38;;;;;;;;;;;15.20;49.10;;;;;;6172708;23;19916;-78
2022/02/11 14:47:07;;;;;;;;;;;15.10;49.40;;;;;;6190504;23;19931;-78
2022/02/11 14:49:35;;;;;;;;;;;15.10;49.90;;;;;;6164875;23;19923;-77
2022/02/11 14:52:04;;;;;;;;;;;15.00;49.50;;;;;;6196774;23;19900;-77
2022/02/11 14:54:32;;;;;;;;;;;15.00;50.00;;;;;;6204637;23;19920;-77
2022/02/11 14:56:59;;;;;;;;;;;15.00;50.30;;;;;;6200982;23;19916;-78
2022/02/11 14:59:26;;;;;;;;;;;15.20;50.60;;;;;;6178264;23;19932;-77
2022/02/11 15:01:53;;;;;;;;;;;15.20;49.30;;;;;;6191312;23;19920;-77
2022/02/11 15:04:20;;;;;;;;;;;15.30;49.40;;;;;;6179605;23;19935;-77
2022/02/11 15:06:53;;;;;;;;;;;15.30;49.10;;;;;;6176964;23;19954;-76
2022/02/11 15:09:20;;;;;;;;;;;15.20;49.30;;;;;;6161920;23;19950;-77
2022/02/11 15:11:47;;;;;;;;;;;15.20;49.50;;;;;;6161552;23;19920;-78
2022/02/11 15:14:21;;;;;;;;;;;15.10;49.30;;;;;;6176331;23;19923;-77
2022/02/11 19:28:11;;;;;;;;;;;5.70;76.60;;;;;;6105108;23;19954;-77
2022/02/11 19:30:38;;;;;;;;;;;5.70;77.70;;;;;;6184383;23;20399;-76
2022/02/11 19:33:05;;;;;;;;;;;5.60;75.70;;;;;;6177737;23;19920;-76
2022/02/11 19:35:32;;;;;;;;;;;5.60;76.20;;;;;;6187568;23;19947;-76
2022/02/11 19:37:58;;;;;;;;;;;5.60;76.10;;;;;;6187663;23;19979;-77
2022/02/11 19:40:26;;;;;;;;;;;5.50;76.10;;;;;;6190745;23;19963;-75
2022/02/11 19:42:55;;;;;;;;;;;5.50;77.30;;;;;;6185853;23;19924;-77
2022/02/11 19:45:21;;;;;;;;;;;5.50;77.50;;;;;;6188244;23;19917;-76
2022/02/11 19:47:48;;;;;;;;;;;5.50;76.60;;;;;;6191642;23;19923;-77
2022/02/11 19:50:18;;;;;;;;;;;5.50;76.40;;;;;;6189950;23;20360;-75
2022/02/11 19:52:45;;;;;;;;;;;5.30;74.80;;;;;;6186257;23;19921;-77
2022/02/11 19:55:12;;;;;;;;;;;5.20;74.40;;;;;;6189583;23;19944;-76
2022/02/11 19:57:41;;;;;;;;;;;5.10;74.50;;;;;;6167670;23;19926;-77
2022/02/11 20:00:12;;;;;;;;;;;5.00;75.50;;;;;;6187793;23;19920;-77
2022/02/11 20:02:40;;;;;;;;;;;4.90;76.00;;;;;;6196777;23;19970;-76
2022/02/11 20:05:07;;;;;;;;;;;4.90;75.40;;;;;;6160184;23;19928;-76
2022/02/11 20:07:37;;;;;;;;;;;4.80;75.10;;;;;;6192099;23;19916;-77
2022/02/11 20:10:06;;;;;;;;;;;4.80;75.50;;;;;;6193476;23;19940;-76
2022/02/11 20:12:32;;;;;;;;;;;4.80;77.20;;;;;;6188153;23;19919;-77
2022/02/11 20:15:00;;;;;;;;;;;4.80;77.70;;;;;;6160901;23;20333;-77
2022/02/11 20:17:27;;;;;;;;;;;4.80;76.30;;;;;;6160428;23;19923;-77
2022/02/11 20:19:54;;;;;;;;;;;4.80;75.60;;;;;;6184875;23;19916;-78
2022/02/11 20:22:21;;;;;;;;;;;4.70;75.40;;;;;;6161172;23;19971;-78
2022/02/11 20:24:48;;;;;;;;;;;4.70;75.60;;;;;;6194205;23;19923;-76
2022/02/11 20:27:15;;;;;;;;;;;4.70;75.50;;;;;;6190220;23;19986;-77
2022/02/11 20:29:43;;;;;;;;;;;4.70;75.90;;;;;;6190686;23;19923;-76
2022/02/11 20:32:12;;;;;;;;;;;4.70;75.80;;;;;;6167556;23;19916;-77
2022/02/11 20:34:39;;;;;;;;;;;4.60;77.00;;;;;;6165435;23;19927;-76
2022/02/11 20:37:12;;;;;;;;;;;4.60;77.70;;;;;;6184276;23;19926;-77
2022/02/11 20:39:39;;;;;;;;;;;4.70;77.40;;;;;;6159077;23;19916;-77
2022/02/11 20:42:05;;;;;;;;;;;4.70;77.10;;;;;;6185976;23;19923;-77
2022/02/11 20:44:33;;;;;;;;;;;4.70;77.00;;;;;;6160290;23;20260;-77
2022/02/11 20:47:00;;;;;;;;;;;4.70;76.50;;;;;;6139621;23;19943;-77
2022/02/11 20:49:27;;;;;;;;;;;4.70;76.60;;;;;;6167123;23;19931;-78
2022/02/11 20:51:54;;;;;;;;;;;4.60;76.00;;;;;;6170092;23;19916;-75
2022/02/11 20:54:27;;;;;;;;;;;4.50;74.90;;;;;;6188313;23;20369;-75
2022/02/11 20:56:54;;;;;;;;;;;4.40;74.40;;;;;;6190845;23;19970;-78
2022/02/11 20:59:22;;;;;;;;;;;4.20;74.40;;;;;;6189407;23;19916;-78
2022/02/11 21:01:49;;;;;;;;;;;4.10;74.70;;;;;;6185013;23;19917;-78
2022/02/11 21:04:16;;;;;;;;;;;4.00;75.10;;;;;;6166073;23;19971;-77
2022/02/11 21:09:29;;;;;;;;;;;3.80;76.60;;;;;;6189563;23;19974;-77
2022/02/11 21:11:56;;;;;;;;;;;3.80;76.00;;;;;;6197029;23;19920;-77
2022/02/11 21:14:23;;;;;;;;;;;3.70;76.10;;;;;;6164476;23;19920;-77
2022/02/11 21:16:49;;;;;;;;;;;3.70;76.10;;;;;;6182814;23;19995;-77
2022/02/11 21:19:16;;;;;;;;;;;3.70;75.80;;;;;;6192610;23;19916;-75
2022/02/11 21:21:43;;;;;;;;;;;3.60;76.50;;;;;;6192976;23;19922;-76
2022/02/11 21:24:13;;;;;;;;;;;3.40;76.70;;;;;;6181909;23;19927;-78
2022/02/11 21:26:40;;;;;;;;;;;3.40;77.10;;;;;;6136815;23;19931;-78
2022/02/11 21:29:08;;;;;;;;;;;3.40;77.10;;;;;;6190828;23;19991;-76
2022/02/11 21:31:38;;;;;;;;;;;3.30;76.70;;;;;;6196120;23;19945;-78
2022/02/11 21:34:05;;;;;;;;;;;3.20;77.70;;;;;;6168500;23;20284;-78
2022/02/11 21:36:32;;;;;;;;;;;3.10;81.70;;;;;;6162551;23;19916;-77
2022/02/11 21:38:59;;;;;;;;;;;3.20;81.60;;;;;;6161954;23;20281;-77
2022/02/11 21:41:27;;;;;;;;;;;3.10;80.70;;;;;;6191415;23;20015;-76
2022/02/11 21:43:54;;;;;;;;;;;3.10;80.30;;;;;;6166958;23;19916;-76
2022/02/11 21:46:22;;;;;;;;;;;3.10;81.30;;;;;;6193304;23;19916;-77
2022/02/11 21:48:49;;;;;;;;;;;3.10;80.80;;;;;;6158443;23;19916;-77
2022/02/11 21:51:16;;;;;;;;;;;3.10;81.30;;;;;;6187311;23;19943;-77
2022/02/11 21:53:43;;;;;;;;;;;3.10;80.80;;;;;;6157841;23;19923;-78
2022/02/11 21:56:09;;;;;;;;;;;3.10;81.00;;;;;;6176006;23;19916;-77
2022/02/11 21:58:36;;;;;;;;;;;3.10;81.20;;;;;;6187497;23;19975;-77
2022/02/11 22:01:03;;;;;;;;;;;3.10;81.20;;;;;;6160822;23;19923;-77
2022/02/11 22:03:30;;;;;;;;;;;3.10;81.30;;;;;;6183347;23;19927;-77
2022/02/11 22:05:57;;;;;;;;;;;3.00;80.70;;;;;;6191910;23;19986;-76
2022/02/11 22:08:26;;;;;;;;;;;3.00;80.10;;;;;;6187328;23;19916;-76
2022/02/11 22:10:54;;;;;;;;;;;3.00;80.00;;;;;;6191034;23;19920;-77
2022/02/11 22:13:22;;;;;;;;;;;3.00;79.80;;;;;;6170756;23;20413;-77
2022/02/11 22:15:49;;;;;;;;;;;2.90;79.30;;;;;;6166065;23;20448;-77
2022/02/11 22:18:18;;;;;;;;;;;2.90;79.00;;;;;;6184246;23;19920;-77
2022/02/11 22:20:46;;;;;;;;;;;2.80;77.70;;;;;;6191748;23;19920;-77
2022/02/11 22:23:13;;;;;;;;;;;2.50;77.00;;;;;;6188043;23;19943;-78
2022/02/11 22:25:40;;;;;;;;;;;2.40;77.80;;;;;;6165338;23;20409;-75
2022/02/11 22:28:07;;;;;;;;;;;2.40;77.70;;;;;;6186347;23;19915;-77
2022/02/11 22:30:35;;;;;;;;;;;2.40;78.00;;;;;;6184594;23;19947;-77
2022/02/11 22:33:02;;;;;;;;;;;2.30;77.50;;;;;;6160539;23;19966;-78
2022/02/11 22:35:28;;;;;;;;;;;2.40;77.10;;;;;;6184342;23;19919;-76
2022/02/11 22:37:55;;;;;;;;;;;2.40;75.60;;;;;;6190885;23;19920;-77
2022/02/11 22:40:22;;;;;;;;;;;2.50;73.80;;;;;;6193274;23;19920;-78
2022/02/11 22:42:49;;;;;;;;;;;2.40;73.00;;;;;;6189249;23;19916;-75
2022/02/11 22:45:16;;;;;;;;;;;2.50;70.80;;;;;;6170133;23;20253;-78
2022/02/11 22:47:42;;;;;;;;;;;2.60;68.00;;;;;;6185905;23;20249;-77
2022/02/11 22:53:11;;;;;;;;;;;2.90;62.60;;;;;;6192981;23;19990;-77
2022/02/11 22:55:39;;;;;;;;;;;3.10;60.10;;;;;;6189427;23;19916;-75